Terminal Aerodrome Forecast
Issued by NWS

Home | Current Version | Previous Version | Text Only | Print | Product List | Glossary Off
Versions: 1 2 3 4 5 6 7 8 9 10 11 12 13 14 15 16 17 18 19

000
FTUS43 KMPX 251018 AAB
TAFAXN
TAF AMD
KAXN 251018Z 2510/2606 15009KT P6SM VCSH BKN090
     FM251200 16013G21KT P6SM SCT020 BKN040
     FM260000 18006KT P6SM VCTS SCT040CB PROB30 2600/2604 3SM TSRA
      SCT015 BKN040CB=

USA.gov is the U.S. government's official web portal to all federal, state and local government web resources and services.